• Join FlightAware (Why Join?)
  • Login
  • US Flag 
12:33AM EDT


 

Airport Tracker/Info


-or-


 

Live Flight TrackerFlight Track Log ✈ FDX1570 ✈ 21-May-2013 ✈ KMEM - KALB

Flight Track Log - Related Links

Times and Time Zones

All times are in EDT time to prevent confusion due to time zone crossing. See the FDX1570 flight status page for this flight to view local times or setup timezone preferences in your user account.

Time Position Orientation Groundspeed Altitude Reporting Facility
EDT Latitude Longitude Course Direction KTS MPH feet Rate Location/Type
04:41AM 35.0167 -89.9667 180° South 180 207 1,100  Level KMEM
04:42AM 35.0000 -89.9667 180° South 197 227 1,900 2,280 Climbing KMEM
04:43AM 34.9333 -89.9333 158° South 252 290 4,400 2,160 Climbing KMEM
04:44AM 34.8125 -89.8842 162° South 281 323 8,000 1,260 Climbing Memphis Center
04:45AM 34.7433 -89.8442 155° Southeast 276 318 8,000 540 Level Memphis Center
04:46AM 34.6744 -89.8014 153° Southeast 270 311 9,100 480 Climbing Memphis Center
04:47AM 34.6075 -89.7617 154° Southeast 277 319 9,000  Descending Memphis Center
04:48AM 34.5653 -89.6761 121° Southeast 272 313 9,100 1,020 Climbing Memphis Center
04:49AM 34.5311 -89.5781 113° Southeast 289 333 11,100 1,800 Climbing Memphis Center
04:50AM 34.5325 -89.4519 89° East 358 412 12,800 2,160 Climbing Memphis Center
04:51AM 34.5942 -89.3328 58° Northeast 370 426 15,500 2,520 Climbing Memphis Center
04:52AM 34.6703 -89.2208 50° Northeast 412 474 17,900 2,100 Climbing Memphis Center
04:53AM 34.7464 -89.1061 51° Northeast 427 491 19,800 1,920 Climbing Memphis Center
04:54AM 34.8225 -88.9861 52° Northeast 445 512 21,800 1,740 Climbing Memphis Center
04:55AM 34.9022 -88.8631 52° Northeast 453 521 23,300 1,500 Climbing Memphis Center
04:56AM 34.9861 -88.7350 51° Northeast 472 543 24,800 1,500 Climbing Memphis Center
04:57AM 35.0761 -88.5936 52° Northeast 472 543 26,400 1,740 Climbing Memphis Center
04:58AM 35.1617 -88.4622 51° Northeast 488 562 28,300 1,680 Climbing Memphis Center
05:04AM 35.5870 -87.7910 51° Northeast 465 535 37,000 1,440 Climbing FlightAware
05:04AM 35.6440 -87.7000 52° Northeast 470 541 37,000  Level FlightAware
05:05AM 35.6940 -87.6190 53° Northeast 473 544 37,000  Level FlightAware
05:06AM 35.7540 -87.5250 52° Northeast 475 547 37,000  Level FlightAware
05:07AM 35.8080 -87.4370 53° Northeast 468 539 37,000  Level FlightAware
05:07AM 35.8610 -87.3530 52° Northeast 465 535 37,000  Level FlightAware
05:08AM 35.9190 -87.2580 53° Northeast 461 531 37,000  Level FlightAware
05:08AM 35.9592 -87.1935 52° Northeast 461 531 37,000  Level FlightAware ADS-B
05:09AM 35.9981 -87.1306 53° Northeast 461 531 37,000  Level FlightAware ADS-B
05:09AM 36.0375 -87.0658 53° Northeast 459 528 37,000  Level FlightAware ADS-B
05:10AM 36.0786 -86.9991 53° Northeast 459 528 37,000  Level FlightAware ADS-B
05:10AM 36.1174 -86.9364 53° Northeast 460 529 37,000  Level FlightAware ADS-B
05:11AM 36.1754 -86.8419 53° Northeast 462 532 37,000  Level FlightAware ADS-B
05:12AM 36.2149 -86.7763 53° Northeast 463 533 37,000  Level FlightAware ADS-B
05:13AM 36.3040 -86.6300 53° Northeast 466 536 37,000  Level FlightAware
05:14AM 36.3560 -86.5440 53° Northeast 465 535 37,000  Level FlightAware
05:14AM 36.4070 -86.4610 53° Northeast 461 531 37,000  Level FlightAware
05:15AM 36.4600 -86.3720 53° Northeast 458 527 37,000  Level FlightAware
05:16AM 36.5130 -86.2840 53° Northeast 457 526 37,000  Level FlightAware
05:16AM 36.5332 -86.2503 53° Northeast 457 526 37,000  Level FlightAware ADS-B
05:16AM 36.5716 -86.1871 53° Northeast 457 526 37,000  Level FlightAware ADS-B
05:17AM 36.6099 -86.1218 54° Northeast 457 526 37,000  Level FlightAware ADS-B
05:17AM 36.6481 -86.0586 53° Northeast 456 525 37,000  Level FlightAware ADS-B
05:18AM 36.6859 -85.9952 53° Northeast 457 526 37,000  Level FlightAware ADS-B
05:18AM 36.7243 -85.9318 53° Northeast 456 525 37,000  Level FlightAware ADS-B
05:19AM 36.7620 -85.8684 53° Northeast 456 525 37,000  Level FlightAware ADS-B
05:19AM 36.7998 -85.8029 54° Northeast 456 525 37,000  Level FlightAware ADS-B
05:20AM 36.8502 -85.7183 53° Northeast 456 525 37,000  Level FlightAware ADS-B
05:21AM 36.9230 -85.5970 53° Northeast 457 526 37,000  Level FlightAware
05:21AM 36.9302 -85.5822 59° Northeast 456 525 37,000  Level FlightAware ADS-B
05:22AM 36.9686 -85.5180 53° Northeast 459 528 37,000  Level FlightAware ADS-B
05:22AM 37.0136 -85.4413 54° Northeast 459 528 37,000  Level FlightAware ADS-B
05:23AM 37.0561 -85.3685 54° Northeast 459 528 37,000  Level FlightAware ADS-B
05:23AM 37.0943 -85.3039 53° Northeast 460 529 37,000  Level FlightAware ADS-B
05:24AM 37.1347 -85.2350 54° Northeast 462 532 37,000  Level FlightAware ADS-B
05:24AM 37.1765 -85.1616 54° Northeast 461 531 37,000  Level FlightAware ADS-B
05:25AM 37.2170 -85.0923 54° Northeast 461 531 37,000  Level FlightAware ADS-B
05:25AM 37.2573 -85.0232 54° Northeast 460 529 37,000  Level FlightAware ADS-B
05:26AM 37.3250 -84.9060 54° Northeast 459 528 37,000  Level FlightAware
05:27AM 37.3470 -84.8677 54° Northeast 458 527 37,000  Level FlightAware ADS-B
05:27AM 37.4099 -84.7580 54° Northeast 457 526 37,000  Level FlightAware ADS-B
05:29AM 37.4930 -84.6140 54° Northeast 457 526 37,000  Level FlightAware
05:29AM 37.5360 -84.5400 54° Northeast 457 526 37,000  Level FlightAware
05:30AM 37.5780 -84.4670 54° Northeast 457 526 37,000  Level FlightAware
05:31AM 37.6520 -84.3340 55° Northeast 460 529 37,000  Level FlightAware
05:32AM 37.7100 -84.2320 54° Northeast 461 531 37,000  Level FlightAware
05:32AM 37.7590 -84.1460 54° Northeast 460 529 37,000  Level FlightAware
05:33AM 37.8110 -84.0540 54° Northeast 459 528 37,000  Level FlightAware
05:34AM 37.8630 -83.9600 55° Northeast 460 529 37,000  Level FlightAware
05:34AM 37.8958 -83.9025 54° Northeast 460 529 37,000  Level FlightAware ADS-B
05:35AM 37.9570 -83.7940 54° Northeast 461 531 37,000  Level FlightAware
05:36AM 38.0320 -83.6610 54° Northeast 462 532 37,000  Level FlightAware
05:37AM 38.0740 -83.5860 55° Northeast 462 532 37,000  Level FlightAware
05:38AM 38.1390 -83.4740 54° Northeast 462 532 37,000  Level FlightAware
05:38AM 38.2000 -83.3540 57° Northeast 464 534 37,000  Level FlightAware
05:39AM 38.2630 -83.2400 55° Northeast 464 534 37,000  Level FlightAware
05:40AM 38.3130 -83.1480 55° Northeast 466 536 37,000  Level FlightAware
05:40AM 38.3670 -83.0490 55° Northeast 465 535 37,000  Level FlightAware
05:41AM 38.4180 -82.9540 56° Northeast 463 533 37,000  Level FlightAware
05:42AM 38.4720 -82.8550 55° Northeast 462 532 37,000  Level FlightAware
05:43AM 38.5190 -82.7680 55° Northeast 462 532 37,000  Level FlightAware
05:43AM 38.5680 -82.6780 55° Northeast 461 531 37,000  Level FlightAware
05:44AM 38.6240 -82.5730 56° Northeast 460 529 37,000  Level FlightAware
05:45AM 38.6710 -82.4850 56° Northeast 459 528 37,000  Level FlightAware
05:45AM 38.7220 -82.3910 55° Northeast 457 526 37,000  Level FlightAware
05:46AM 38.7690 -82.3040 55° Northeast 456 525 37,000  Level FlightAware
05:47AM 38.8200 -82.2080 56° Northeast 456 525 37,000  Level FlightAware
05:47AM 38.8690 -82.1170 55° Northeast 457 526 37,000  Level FlightAware
05:48AM 38.9230 -82.0160 55° Northeast 456 525 37,000  Level FlightAware
05:49AM 38.9750 -81.9170 56° Northeast 457 526 37,000  Level FlightAware
05:50AM 39.0340 -81.8050 56° Northeast 457 526 37,000  Level FlightAware
05:50AM 39.0890 -81.7010 56° Northeast 458 527 37,000  Level FlightAware
05:51AM 39.1360 -81.6100 56° Northeast 457 526 37,000  Level FlightAware
05:52AM 39.1880 -81.5110 56° Northeast 456 525 37,000  Level FlightAware
05:53AM 39.2360 -81.4180 56° Northeast 456 525 37,000  Level FlightAware
05:53AM 39.2820 -81.3280 57° Northeast 455 524 37,000  Level FlightAware
05:54AM 39.3280 -81.2400 56° Northeast 456 525 37,000  Level FlightAware
05:55AM 39.3790 -81.1420 56° Northeast 458 527 37,000  Level FlightAware
05:55AM 39.4090 -81.0850 56° Northeast 459 528 37,000  Level FlightAware
05:56AM 39.4760 -80.9520 57° Northeast 462 532 37,000  Level FlightAware
05:57AM 39.5240 -80.8600 56° Northeast 464 534 37,000  Level FlightAware
05:57AM 39.5720 -80.7660 56° Northeast 467 537 37,000  Level FlightAware
05:58AM 39.6200 -80.6730 56° Northeast 467 537 37,000  Level FlightAware
05:59AM 39.6800 -80.5530 57° Northeast 467 537 37,000  Level FlightAware
05:59AM 39.7260 -80.4620 57° Northeast 467 537 37,000  Level FlightAware
06:00AM 39.7640 -80.3870 57° Northeast 467 537 37,000  Level FlightAware
06:01AM 39.8170 -80.2810 57° Northeast 466 536 37,000  Level FlightAware
06:01AM 39.8640 -80.1880 57° Northeast 464 534 37,000  Level FlightAware
06:02AM 39.9160 -80.0820 57° Northeast 464 534 37,000  Level FlightAware
06:03AM 39.9790 -79.9560 57° Northeast 464 534 37,000  Level FlightAware
06:04AM 40.0270 -79.8590 57° Northeast 463 533 37,000  Level FlightAware
06:05AM 40.0800 -79.7540 57° Northeast 463 533 37,000  Level FlightAware
06:05AM 40.1250 -79.6620 57° Northeast 464 534 37,000  Level FlightAware
06:06AM 40.1720 -79.5650 58° Northeast 464 534 37,000  Level FlightAware
06:06AM 40.2120 -79.4850 57° Northeast 464 534 37,000  Level FlightAware
06:07AM 40.2650 -79.3750 58° Northeast 468 539 37,000  Level FlightAware
06:08AM 40.3160 -79.2700 57° Northeast 468 539 37,000  Level FlightAware
06:09AM 40.3640 -79.1720 57° Northeast 471 542 37,000  Level FlightAware
06:09AM 40.4050 -79.0870 58° Northeast 473 544 37,000  Level FlightAware
06:10AM 40.4690 -78.9530 58° Northeast 476 548 37,000  Level FlightAware
06:11AM 40.5280 -78.8310 58° Northeast 478 550 37,000  Level FlightAware
06:12AM 40.5750 -78.7320 58° Northeast 478 550 37,000  Level FlightAware
06:12AM 40.6320 -78.6160 57° Northeast 478 550 37,000  Level FlightAware
06:13AM 40.6870 -78.4980 58° Northeast 479 551 37,000  Level FlightAware
06:14AM 40.7360 -78.3940 58° Northeast 480 552 37,000  Level FlightAware
06:15AM 40.7890 -78.2840 58° Northeast 480 552 37,000  Level FlightAware
06:16AM 40.8470 -78.1600 58° Northeast 481 554 37,000  Level FlightAware
06:16AM 40.9030 -78.0650 52° Northeast 481 554 37,000 -600 Level FlightAware
06:17AM 40.9620 -77.9760 49° Northeast 481 554 36,200 -1,200 Descending FlightAware
06:18AM 41.0200 -77.8880 49° Northeast 481 554 35,400 -1,500 Descending FlightAware
06:18AM 41.0880 -77.7880 48° Northeast 491 565 34,100 -1,680 Descending FlightAware
06:19AM 41.1470 -77.6990 49° Northeast 496 571 33,100 -1,500 Descending FlightAware
06:20AM 41.2160 -77.5960 48° Northeast 500 575 32,000 -1,560 Descending FlightAware
06:20AM 41.2850 -77.4910 49° Northeast 505 581 30,800 -1,680 Descending FlightAware
06:21AM 41.3250 -77.4300 49° Northeast 508 585 30,100 -1,560 Descending FlightAware
06:22AM 41.3950 -77.3240 49° Northeast 513 590 29,000 -780 Descending FlightAware
06:22AM 41.4570 -77.2280 49° Northeast 513 590 29,000  Level FlightAware
06:23AM 41.5190 -77.1330 49° Northeast 511 588 29,000  Level FlightAware
06:24AM 41.5900 -77.0240 49° Northeast 507 583 29,000  Level FlightAware
06:24AM 41.6490 -76.9340 49° Northeast 507 583 29,000  Level FlightAware
06:25AM 41.7160 -76.8300 49° Northeast 505 581 29,000  Level FlightAware
06:26AM 41.7860 -76.7230 49° Northeast 500 575 29,000 -240 Level FlightAware
06:27AM 41.8460 -76.6290 49° Northeast 495 570 28,700 -900 Descending FlightAware
06:27AM 41.9060 -76.5340 50° Northeast 494 568 27,800 -1,500 Descending FlightAware
06:28AM 41.9750 -76.4260 49° Northeast 496 571 26,600 -1,380 Descending FlightAware
06:29AM 42.0310 -76.3370 50° Northeast 490 564 25,900 -1,320 Descending FlightAware
06:29AM 42.0930 -76.2380 50° Northeast 485 558 24,900 -1,140 Descending FlightAware
06:30AM 42.1680 -76.0950 55° Northeast 484 557 24,000 -600 Descending FlightAware
06:31AM 42.2000 -76.0050 64° Northeast 484 557 24,000  Level FlightAware
06:32AM 42.2350 -75.8440 74° East 489 563 24,000  Level FlightAware
06:33AM 42.2680 -75.7220 70° East 489 563 24,000  Level FlightAware
06:33AM 42.2950 -75.6250 69° East 489 563 24,000  Level FlightAware
06:34AM 42.3210 -75.5270 70° East 489 563 24,000 -1,980 Level FlightAware
06:35AM 42.3680 -75.3320 72° East 475 547 21,400 -2,340 Descending FlightAware
06:35AM 42.3980 -75.2160 71° East 473 544 20,700 -540 Descending FlightAware
06:36AM 42.4240 -75.1220 69° East 473 544 20,700  Level FlightAware
06:37AM 42.4490 -75.0270 70° East 473 544 20,700  Level FlightAware
06:37AM 42.4750 -74.9320 70° East 473 544 20,700  Level FlightAware
06:38AM 42.5060 -74.8140 70° East 473 544 20,700 -6,300 Level FlightAware
06:39AM 42.5303 -74.6856 70° East 391 450 11,600 -7,980 Descending Boston Center
06:39AM 42.5461 -74.6297 69° East 388 447 11,300 -540 Descending Boston Center
06:40AM 42.5617 -74.5683 71° East 318 366 11,100 -900 Descending Boston Center
06:40AM 42.5775 -74.5042 71° East 325 374 10,400 -1,320 Descending Boston Center
06:41AM 42.5969 -74.4653 56° Northeast 300 345 9,800 -1,320 Descending Boston Center
06:41AM 42.6228 -74.4181 53° Northeast 299 344 9,100 -1,620 Descending Boston Center
06:42AM 42.6467 -74.3681 57° Northeast 297 342 8,200 -1,740 Descending Boston Center
06:42AM 42.6706 -74.3181 57° Northeast 299 344 7,400 -1,500 Descending Boston Center
06:43AM 42.6939 -74.2819 49° Northeast 293 337 6,700 -1,440 Descending Boston Center
06:43AM 42.7133 -74.2344 61° Northeast 299 344 6,000 -1,440 Descending Boston Center
06:44AM 42.7392 -74.1900 52° Northeast 292 336 5,300 -1,440 Descending Boston Center
06:44AM 42.7628 -74.1369 59° Northeast 294 338 4,600 -1,380 Descending Boston Center
06:45AM 42.7822 -74.0978 56° Northeast 286 329 3,900 -1,200 Descending Boston Center
06:45AM 42.8056 -74.0617 49° Northeast 289 333 3,400 -900 Descending Boston Center
06:46AM 42.8314 -74.0086 56° Northeast 272 313 3,000 -420 Descending Boston Center
06:46AM 42.8464 -73.9778 56° Northeast 277 319 3,000  Level Boston Center
06:47AM 42.8678 -73.9331 57° Northeast 232 267 3,000 -300 Level Boston Center
06:47AM 42.8808 -73.9022 60° Northeast 248 285 2,700 -600 Descending Boston Center
06:48AM 42.9003 -73.8544 61° Northeast 224 258 2,400 -540 Descending Boston Center
06:48AM 42.8881 -73.8231 118° Southeast 216 249 2,200 -420 Descending Boston Center
06:49AM 42.8631 -73.8139 165° South 172 198 2,000 -240 Descending Boston Center
06:49AM 42.8719 -73.7744 73° East 162 186 2,000 -540 Level Boston Center
06:50AM 42.8194 -73.8100 206° Southwest 156 180 1,500 -780 Descending Boston Center
06:51AM 42.7839 -73.8064 176° South 119 137 800 -720 Descending Boston Center
06:53AM 42.7491 -73.8020 190° South  Level Estimated